sensor_id;sensor_type;location;lat;lon;timestamp;pressure;altitude;pressure_sealevel;temperature;humidity
56630;BME280;42502;40.732;-74.254;2023-04-29T00:01:57;100862.25;;;21.40;35.20
56630;BME280;42502;40.732;-74.254;2023-04-29T00:03:58;100856.63;;;21.40;34.65
56630;BME280;42502;40.732;-74.254;2023-04-29T00:05:59;100850.06;;;21.36;34.49
56630;BME280;42502;40.732;-74.254;2023-04-29T00:08:00;100866.25;;;21.39;34.40
56630;BME280;42502;40.732;-74.254;2023-04-29T00:10:02;100861.78;;;21.38;34.61
56630;BME280;42502;40.732;-74.254;2023-04-29T00:12:03;100843.78;;;21.27;34.62
56630;BME280;42502;40.732;-74.254;2023-04-29T00:14:03;100869.06;;;21.39;34.46
56630;BME280;42502;40.732;-74.254;2023-04-29T00:16:07;100846.47;;;21.36;34.46
56630;BME280;42502;40.732;-74.254;2023-04-29T00:18:11;100843.28;;;21.37;34.46
56630;BME280;42502;40.732;-74.254;2023-04-29T00:20:13;100852.06;;;21.36;34.64
56630;BME280;42502;40.732;-74.254;2023-04-29T00:22:14;100852.88;;;21.36;34.24
56630;BME280;42502;40.732;-74.254;2023-04-29T00:24:15;100855.25;;;21.34;34.61
56630;BME280;42502;40.732;-74.254;2023-04-29T00:26:16;100862.50;;;21.35;34.49
56630;BME280;42502;40.732;-74.254;2023-04-29T00:28:17;100859.69;;;21.35;34.39
56630;BME280;42502;40.732;-74.254;2023-04-29T00:30:18;100869.28;;;21.34;34.61
56630;BME280;42502;40.732;-74.254;2023-04-29T00:32:21;100848.81;;;21.34;34.41
56630;BME280;42502;40.732;-74.254;2023-04-29T00:34:22;100854.44;;;21.34;34.49
56630;BME280;42502;40.732;-74.254;2023-04-29T00:36:23;100850.78;;;21.33;34.38
56630;BME280;42502;40.732;-74.254;2023-04-29T00:38:25;100860.41;;;21.32;34.42
56630;BME280;42502;40.732;-74.254;2023-04-29T00:40:27;100868.00;;;21.32;34.38
56630;BME280;42502;40.732;-74.254;2023-04-29T00:42:28;100865.19;;;21.32;34.36
56630;BME280;42502;40.732;-74.254;2023-04-29T00:44:31;100865.19;;;21.32;34.38
56630;BME280;42502;40.732;-74.254;2023-04-29T00:46:32;100868.00;;;21.32;34.31
56630;BME280;42502;40.732;-74.254;2023-04-29T00:48:34;100862.75;;;21.30;34.34
56630;BME280;42502;40.732;-74.254;2023-04-29T00:50:34;100865.53;;;21.30;34.31
56630;BME280;42502;40.732;-74.254;2023-04-29T00:52:36;100869.56;;;21.29;34.22
56630;BME280;42502;40.732;-74.254;2023-04-29T00:54:38;100863.81;;;21.25;34.37
56630;BME280;42502;40.732;-74.254;2023-04-29T00:56:39;100874.69;;;21.27;34.26
56630;BME280;42502;40.732;-74.254;2023-04-29T00:58:42;100872.22;;;21.25;34.18
56630;BME280;42502;40.732;-74.254;2023-04-29T01:00:49;100873.53;;;21.28;34.28
56630;BME280;42502;40.732;-74.254;2023-04-29T01:02:51;100873.88;;;21.26;34.46
56630;BME280;42502;40.732;-74.254;2023-04-29T01:04:54;100878.34;;;21.27;34.32
56630;BME280;42502;40.732;-74.254;2023-04-29T01:07:07;100880.56;;;21.22;34.07
56630;BME280;42502;40.732;-74.254;2023-04-29T01:11:41;100882.31;;;21.26;34.36
56630;BME280;42502;40.732;-74.254;2023-04-29T01:13:49;100886.28;;;21.25;34.26
56630;BME280;42502;40.732;-74.254;2023-04-29T01:16:05;100883.81;;;21.24;34.31
56630;BME280;42502;40.732;-74.254;2023-04-29T01:18:29;100887.81;;;21.23;33.98
56630;BME280;42502;40.732;-74.254;2023-04-29T01:20:33;100880.22;;;21.23;34.32
56630;BME280;42502;40.732;-74.254;2023-04-29T01:22:35;100902.34;;;21.25;34.11
56630;BME280;42502;40.732;-74.254;2023-04-29T01:24:36;100885.03;;;21.23;34.24
56630;BME280;42502;40.732;-74.254;2023-04-29T01:26:37;100883.38;;;21.22;34.10
56630;BME280;42502;40.732;-74.254;2023-04-29T01:28:56;100878.09;;;21.20;34.13
56630;BME280;42502;40.732;-74.254;2023-04-29T01:31:17;100882.91;;;21.20;34.13
56630;BME280;42502;40.732;-74.254;2023-04-29T01:33:33;100872.84;;;21.19;34.23
56630;BME280;42502;40.732;-74.254;2023-04-29T01:37:56;100858.00;;;21.18;34.06
56630;BME280;42502;40.732;-74.254;2023-04-29T01:40:25;100846.75;;;21.18;34.19
56630;BME280;42502;40.732;-74.254;2023-04-29T01:42:38;100850.38;;;21.19;34.22
56630;BME280;42502;40.732;-74.254;2023-04-29T01:44:40;100860.78;;;21.18;34.15
56630;BME280;42502;40.732;-74.254;2023-04-29T01:46:43;100870.03;;;21.19;34.04
56630;BME280;42502;40.732;-74.254;2023-04-29T01:48:47;100857.16;;;21.18;34.11
56630;BME280;42502;40.732;-74.254;2023-04-29T01:50:48;100865.94;;;21.16;34.17
56630;BME280;42502;40.732;-74.254;2023-04-29T01:52:48;100852.59;;;21.13;34.02
56630;BME280;42502;40.732;-74.254;2023-04-29T01:54:49;100858.69;;;21.15;34.17
56630;BME280;42502;40.732;-74.254;2023-04-29T01:56:50;100855.03;;;21.15;34.09
56630;BME280;42502;40.732;-74.254;2023-04-29T01:58:51;100852.25;;;21.15;34.03
56630;BME280;42502;40.732;-74.254;2023-04-29T02:00:52;100838.00;;;21.07;34.28
56630;BME280;42502;40.732;-74.254;2023-04-29T02:02:54;100840.53;;;21.12;34.21
56630;BME280;42502;40.732;-74.254;2023-04-29T02:04:55;100844.53;;;21.11;33.93
56630;BME280;42502;40.732;-74.254;2023-04-29T02:06:56;100847.31;;;21.11;34.02
56630;BME280;42502;40.732;-74.254;2023-04-29T02:08:57;100838.09;;;21.11;34.13
56630;BME280;42502;40.732;-74.254;2023-04-29T02:10:58;100838.09;;;21.11;34.21
56630;BME280;42502;40.732;-74.254;2023-04-29T02:12:59;100843.72;;;21.11;34.27
56630;BME280;42502;40.732;-74.254;2023-04-29T02:15:01;100842.41;;;21.08;34.25
56630;BME280;42502;40.732;-74.254;2023-04-29T02:17:02;100834.47;;;21.10;34.33
56630;BME280;42502;40.732;-74.254;2023-04-29T02:19:03;100831.09;;;21.05;34.44
56630;BME280;42502;40.732;-74.254;2023-04-29T02:21:03;100835.63;;;21.09;34.22
56630;BME280;42502;40.732;-74.254;2023-04-29T02:23:05;100816.69;;;21.06;34.43
56630;BME280;42502;40.732;-74.254;2023-04-29T02:25:06;100822.75;;;21.08;34.49
56630;BME280;42502;40.732;-74.254;2023-04-29T02:27:07;100802.16;;;21.04;34.62
56630;BME280;42502;40.732;-74.254;2023-04-29T02:29:08;100800.28;;;21.08;34.62
56630;BME280;42502;40.732;-74.254;2023-04-29T02:31:08;100805.91;;;21.08;34.66
56630;BME280;42502;40.732;-74.254;2023-04-29T02:33:09;100799.47;;;21.08;34.68
56630;BME280;42502;40.732;-74.254;2023-04-29T02:35:10;100790.91;;;21.04;34.94
56630;BME280;42502;40.732;-74.254;2023-04-29T02:37:12;100793.06;;;21.07;34.84
56630;BME280;42502;40.732;-74.254;2023-04-29T02:39:13;100783.44;;;21.08;34.92
56630;BME280;42502;40.732;-74.254;2023-04-29T02:41:16;100770.59;;;21.07;34.84
56630;BME280;42502;40.732;-74.254;2023-04-29T02:43:17;100776.19;;;21.07;34.88
56630;BME280;42502;40.732;-74.254;2023-04-29T02:45:18;100775.00;;;21.08;35.05
56630;BME280;42502;40.732;-74.254;2023-04-29T02:47:19;100767.78;;;21.07;35.21
56630;BME280;42502;40.732;-74.254;2023-04-29T02:49:20;100768.56;;;21.08;35.00
56630;BME280;42502;40.732;-74.254;2023-04-29T02:51:21;100743.28;;;21.08;35.11
56630;BME280;42502;40.732;-74.254;2023-04-29T02:53:21;100742.50;;;21.07;35.10
56630;BME280;42502;40.732;-74.254;2023-04-29T02:55:22;100745.31;;;21.07;35.19
56630;BME280;42502;40.732;-74.254;2023-04-29T02:57:23;100748.91;;;21.08;35.04
56630;BME280;42502;40.732;-74.254;2023-04-29T02:59:24;100750.06;;;21.07;35.08
56630;BME280;42502;40.732;-74.254;2023-04-29T03:01:25;100750.06;;;21.07;34.98
56630;BME280;42502;40.732;-74.254;2023-04-29T03:03:26;100744.00;;;21.05;35.08
56630;BME280;42502;40.732;-74.254;2023-04-29T03:05:27;100741.66;;;21.07;35.32
56630;BME280;42502;40.732;-74.254;2023-04-29T03:07:28;100742.50;;;21.07;35.26
56630;BME280;42502;40.732;-74.254;2023-04-29T03:09:29;100747.28;;;21.07;35.15
56630;BME280;42502;40.732;-74.254;2023-04-29T03:11:30;100748.44;;;21.06;34.87
56630;BME280;42502;40.732;-74.254;2023-04-29T03:13:31;100750.91;;;21.07;35.10
56630;BME280;42502;40.732;-74.254;2023-04-29T03:15:32;100752.88;;;21.07;35.19
56630;BME280;42502;40.732;-74.254;2023-04-29T03:17:32;100766.13;;;21.06;35.14
56630;BME280;42502;40.732;-74.254;2023-04-29T03:19:34;100761.66;;;21.05;35.01
56630;BME280;42502;40.732;-74.254;2023-04-29T03:21:35;100765.28;;;21.06;35.03
56630;BME280;42502;40.732;-74.254;2023-04-29T03:23:36;100771.75;;;21.06;35.14
56630;BME280;42502;40.732;-74.254;2023-04-29T03:25:38;100764.47;;;21.05;35.16
56630;BME280;42502;40.732;-74.254;2023-04-29T03:27:40;100756.06;;;21.05;35.08
56630;BME280;42502;40.732;-74.254;2023-04-29T03:29:41;100756.06;;;21.05;35.12
56630;BME280;42502;40.732;-74.254;2023-04-29T03:31:42;100750.44;;;21.05;35.12
56630;BME280;42502;40.732;-74.254;2023-04-29T03:33:43;100742.28;;;21.00;34.96
56630;BME280;42502;40.732;-74.254;2023-04-29T03:35:44;100740.38;;;21.04;35.27
56630;BME280;42502;40.732;-74.254;2023-04-29T03:37:45;100737.56;;;21.04;35.16
56630;BME280;42502;40.732;-74.254;2023-04-29T03:39:46;100740.38;;;21.04;35.06
56630;BME280;42502;40.732;-74.254;2023-04-29T03:41:46;100725.50;;;21.04;35.12
56630;BME280;42502;40.732;-74.254;2023-04-29T03:43:47;100727.50;;;21.03;35.20
56630;BME280;42502;40.732;-74.254;2023-04-29T03:45:48;100699.00;;;20.89;35.31
56630;BME280;42502;40.732;-74.254;2023-04-29T03:47:49;100719.09;;;21.03;35.15
56630;BME280;42502;40.732;-74.254;2023-04-29T03:49:50;100721.06;;;21.03;35.21
56630;BME280;42502;40.732;-74.254;2023-04-29T03:51:51;100723.88;;;21.03;35.13
56630;BME280;42502;40.732;-74.254;2023-04-29T03:53:53;100707.84;;;21.03;35.13
56630;BME280;42502;40.732;-74.254;2023-04-29T03:55:56;100711.03;;;21.02;35.09
56630;BME280;42502;40.732;-74.254;2023-04-29T03:57:57;100721.41;;;21.01;35.17
56630;BME280;42502;40.732;-74.254;2023-04-29T03:59:57;100724.22;;;21.01;35.10
56630;BME280;42502;40.732;-74.254;2023-04-29T04:01:58;100724.22;;;21.01;35.18
56630;BME280;42502;40.732;-74.254;2023-04-29T04:03:59;100725.06;;;21.02;35.08
56630;BME280;42502;40.732;-74.254;2023-04-29T04:06:00;100727.03;;;21.01;35.03
56630;BME280;42502;40.732;-74.254;2023-04-29T04:08:01;100736.66;;;21.00;35.11
56630;BME280;42502;40.732;-74.254;2023-04-29T04:10:02;100731.75;;;20.97;35.09
56630;BME280;42502;40.732;-74.254;2023-04-29T04:12:03;100729.41;;;20.99;35.33
56630;BME280;42502;40.732;-74.254;2023-04-29T04:14:05;100727.38;;;21.00;35.08
56630;BME280;42502;40.732;-74.254;2023-04-29T04:16:06;100725.41;;;21.00;35.15
56630;BME280;42502;40.732;-74.254;2023-04-29T04:18:07;100708.81;;;20.95;35.12
56630;BME280;42502;40.732;-74.254;2023-04-29T04:20:08;100704.91;;;21.00;34.95
56630;BME280;42502;40.732;-74.254;2023-04-29T04:22:09;100702.47;;;20.98;34.97
56630;BME280;42502;40.732;-74.254;2023-04-29T04:24:11;100699.66;;;20.98;35.23
56630;BME280;42502;40.732;-74.254;2023-04-29T04:26:12;100698.06;;;20.97;35.09
56630;BME280;42502;40.732;-74.254;2023-04-29T04:28:13;100692.44;;;20.97;35.11
56630;BME280;42502;40.732;-74.254;2023-04-29T04:30:14;100698.06;;;20.97;35.17
56630;BME280;42502;40.732;-74.254;2023-04-29T04:32:15;100696.41;;;20.96;35.05
56630;BME280;42502;40.732;-74.254;2023-04-29T04:34:15;100695.25;;;20.97;35.02
56630;BME280;42502;40.732;-74.254;2023-04-29T04:36:16;100702.81;;;20.97;35.01
56630;BME280;42502;40.732;-74.254;2023-04-29T04:38:17;100710.44;;;20.96;35.08
56630;BME280;42502;40.732;-74.254;2023-04-29T04:40:18;100705.63;;;20.97;35.04
56630;BME280;42502;40.732;-74.254;2023-04-29T04:42:19;100704.81;;;20.96;35.17
56630;BME280;42502;40.732;-74.254;2023-04-29T04:44:21;100710.44;;;20.96;35.03
56630;BME280;42502;40.732;-74.254;2023-04-29T04:46:22;100709.63;;;20.96;35.01
56630;BME280;42502;40.732;-74.254;2023-04-29T04:48:23;100701.56;;;20.94;35.03
56630;BME280;42502;40.732;-74.254;2023-04-29T04:50:26;100689.06;;;20.91;34.93
56630;BME280;42502;40.732;-74.254;2023-04-29T04:52:28;100676.28;;;20.94;35.12
56630;BME280;42502;40.732;-74.254;2023-04-29T04:54:29;100684.72;;;20.94;35.14
56630;BME280;42502;40.732;-74.254;2023-04-29T04:56:30;100674.66;;;20.93;35.03
56630;BME280;42502;40.732;-74.254;2023-04-29T04:58:31;100665.41;;;20.92;35.03
56630;BME280;42502;40.732;-74.254;2023-04-29T05:00:32;100662.63;;;20.92;35.13
56630;BME280;42502;40.732;-74.254;2023-04-29T05:02:33;100662.13;;;20.90;35.05
56630;BME280;42502;40.732;-74.254;2023-04-29T05:04:34;100654.53;;;20.91;34.94
56630;BME280;42502;40.732;-74.254;2023-04-29T05:06:35;100652.53;;;20.91;35.05
56630;BME280;42502;40.732;-74.254;2023-04-29T05:08:36;100657.34;;;20.91;34.93
56630;BME280;42502;40.732;-74.254;2023-04-29T05:10:37;100658.53;;;20.90;35.01
56630;BME280;42502;40.732;-74.254;2023-04-29T05:12:38;100655.72;;;20.90;34.76
56630;BME280;42502;40.732;-74.254;2023-04-29T05:14:39;100655.72;;;20.90;35.04
56630;BME280;42502;40.732;-74.254;2023-04-29T05:16:40;100660.53;;;20.89;34.93
56630;BME280;42502;40.732;-74.254;2023-04-29T05:18:41;100646.84;;;20.88;35.07
56630;BME280;42502;40.732;-74.254;2023-04-29T05:20:44;100656.06;;;20.88;35.00
56630;BME280;42502;40.732;-74.254;2023-04-29T05:22:45;100660.88;;;20.88;34.98
56630;BME280;42502;40.732;-74.254;2023-04-29T05:24:46;100662.84;;;20.87;34.91
56630;BME280;42502;40.732;-74.254;2023-04-29T05:26:47;100650.81;;;20.87;35.01
56630;BME280;42502;40.732;-74.254;2023-04-29T05:28:51;100632.78;;;20.88;34.96
56630;BME280;42502;40.732;-74.254;2023-04-29T05:30:52;100631.16;;;20.87;35.15
56630;BME280;42502;40.732;-74.254;2023-04-29T05:32:53;100610.69;;;20.86;34.99
56630;BME280;42502;40.732;-74.254;2023-04-29T05:34:54;100598.63;;;20.86;35.10
56630;BME280;42502;40.732;-74.254;2023-04-29T05:36:55;100580.63;;;20.87;34.99
56630;BME280;42502;40.732;-74.254;2023-04-29T05:38:56;100569.75;;;20.85;34.97
56630;BME280;42502;40.732;-74.254;2023-04-29T05:40:58;100580.97;;;20.85;34.88
56630;BME280;42502;40.732;-74.254;2023-04-29T05:42:58;100580.16;;;20.85;34.89
56630;BME280;42502;40.732;-74.254;2023-04-29T05:44:59;100570.09;;;20.84;34.86
56630;BME280;42502;40.732;-74.254;2023-04-29T05:47:00;100558.88;;;20.84;34.94
56630;BME280;42502;40.732;-74.254;2023-04-29T05:49:01;100547.63;;;20.84;34.82
56630;BME280;42502;40.732;-74.254;2023-04-29T05:51:02;100542.38;;;20.82;34.80
56630;BME280;42502;40.732;-74.254;2023-04-29T05:53:03;100544.03;;;20.83;34.86
56630;BME280;42502;40.732;-74.254;2023-04-29T05:55:04;100553.63;;;20.82;34.84
56630;BME280;42502;40.732;-74.254;2023-04-29T05:57:05;100554.41;;;20.83;34.97
56630;BME280;42502;40.732;-74.254;2023-04-29T05:59:06;100560.03;;;20.83;34.88
56630;BME280;42502;40.732;-74.254;2023-04-29T06:01:07;100546.00;;;20.83;35.02
56630;BME280;42502;40.732;-74.254;2023-04-29T06:03:08;100530.34;;;20.82;34.83
56630;BME280;42502;40.732;-74.254;2023-04-29T06:05:09;100524.25;;;20.80;34.89
56630;BME280;42502;40.732;-74.254;2023-04-29T06:09:12;100520.28;;;20.81;34.91
56630;BME280;42502;40.732;-74.254;2023-04-29T06:11:14;100510.22;;;20.80;34.85
56630;BME280;42502;40.732;-74.254;2023-04-29T06:13:15;100514.22;;;20.79;34.82
56630;BME280;42502;40.732;-74.254;2023-04-29T06:15:16;100511.41;;;20.79;34.86
56630;BME280;42502;40.732;-74.254;2023-04-29T06:17:17;100508.59;;;20.79;34.90
56630;BME280;42502;40.732;-74.254;2023-04-29T06:19:18;100506.97;;;20.77;35.04
56630;BME280;42502;40.732;-74.254;2023-04-29T06:21:19;100500.53;;;20.77;34.75
56630;BME280;42502;40.732;-74.254;2023-04-29T06:23:20;100490.47;;;20.76;34.54
56630;BME280;42502;40.732;-74.254;2023-04-29T06:25:21;100495.25;;;20.75;34.78
56630;BME280;42502;40.732;-74.254;2023-04-29T06:27:22;100482.88;;;20.76;34.85
56630;BME280;42502;40.732;-74.254;2023-04-29T06:29:22;100482.06;;;20.76;34.89
56630;BME280;42502;40.732;-74.254;2023-04-29T06:31:23;100481.22;;;20.75;34.91
56630;BME280;42502;40.732;-74.254;2023-04-29T06:33:24;100488.84;;;20.75;34.80
56630;BME280;42502;40.732;-74.254;2023-04-29T06:35:26;100482.78;;;20.73;34.67
56630;BME280;42502;40.732;-74.254;2023-04-29T06:37:27;100469.56;;;20.73;34.81
56630;BME280;42502;40.732;-74.254;2023-04-29T06:39:28;100466.38;;;20.75;34.78
56630;BME280;42502;40.732;-74.254;2023-04-29T06:41:29;100465.09;;;20.72;34.74
56630;BME280;42502;40.732;-74.254;2023-04-29T06:43:30;100454.34;;;20.74;34.79
56630;BME280;42502;40.732;-74.254;2023-04-29T06:45:30;100443.47;;;20.73;34.87
56630;BME280;42502;40.732;-74.254;2023-04-29T06:47:31;100437.88;;;20.73;34.71
56630;BME280;42502;40.732;-74.254;2023-04-29T06:49:32;100432.25;;;20.73;34.83
56630;BME280;42502;40.732;-74.254;2023-04-29T06:51:33;100434.22;;;20.72;34.85
56630;BME280;42502;40.732;-74.254;2023-04-29T06:53:35;100425.34;;;20.70;34.71
56630;BME280;42502;40.732;-74.254;2023-04-29T06:55:35;100427.81;;;20.72;34.86
56630;BME280;42502;40.732;-74.254;2023-04-29T06:57:36;100414.56;;;20.72;34.74
56630;BME280;42502;40.732;-74.254;2023-04-29T06:59:37;100418.56;;;20.71;34.77
56630;BME280;42502;40.732;-74.254;2023-04-29T07:01:38;100402.91;;;20.70;34.71
56630;BME280;42502;40.732;-74.254;2023-04-29T07:03:39;100404.06;;;20.69;34.67
56630;BME280;42502;40.732;-74.254;2023-04-29T07:05:40;100396.47;;;20.70;34.81
56630;BME280;42502;40.732;-74.254;2023-04-29T07:07:44;100407.72;;;20.70;34.73
56630;BME280;42502;40.732;-74.254;2023-04-29T07:09:45;100404.06;;;20.69;34.65
56630;BME280;42502;40.732;-74.254;2023-04-29T07:11:46;100400.81;;;20.67;34.59
56630;BME280;42502;40.732;-74.254;2023-04-29T07:13:47;100408.06;;;20.68;34.78
56630;BME280;42502;40.732;-74.254;2023-04-29T07:15:48;100400.81;;;20.67;34.82
56630;BME280;42502;40.732;-74.254;2023-04-29T07:17:49;100412.84;;;20.68;34.89
56630;BME280;42502;40.732;-74.254;2023-04-29T07:19:49;100426.09;;;20.67;34.77
56630;BME280;42502;40.732;-74.254;2023-04-29T07:21:50;100428.09;;;20.67;34.81
56630;BME280;42502;40.732;-74.254;2023-04-29T07:23:51;100430.06;;;20.66;34.76
56630;BME280;42502;40.732;-74.254;2023-04-29T07:25:53;100433.84;;;20.58;34.72
56630;BME280;42502;40.732;-74.254;2023-04-29T07:27:54;100447.22;;;20.65;34.64
56630;BME280;42502;40.732;-74.254;2023-04-29T07:29:55;100467.75;;;20.65;34.75
56630;BME280;42502;40.732;-74.254;2023-04-29T07:31:59;100466.53;;;20.66;34.74
56630;BME280;42502;40.732;-74.254;2023-04-29T07:34:00;100465.25;;;20.64;34.76
56630;BME280;42502;40.732;-74.254;2023-04-29T07:36:02;100451.94;;;20.61;34.59
56630;BME280;42502;40.732;-74.254;2023-04-29T07:38:03;100460.13;;;20.66;34.67
56630;BME280;42502;40.732;-74.254;2023-04-29T07:40:04;100449.03;;;20.57;34.77
56630;BME280;42502;40.732;-74.254;2023-04-29T07:42:05;100456.00;;;20.63;34.78
56630;BME280;42502;40.732;-74.254;2023-04-29T07:44:06;100461.97;;;20.62;34.79
56630;BME280;42502;40.732;-74.254;2023-04-29T07:46:07;100463.63;;;20.63;34.74
56630;BME280;42502;40.732;-74.254;2023-04-29T07:48:08;100458.00;;;20.63;34.78
56630;BME280;42502;40.732;-74.254;2023-04-29T07:50:09;100456.00;;;20.63;34.77
56630;BME280;42502;40.732;-74.254;2023-04-29T07:52:10;100438.28;;;20.59;34.80
56630;BME280;42502;40.732;-74.254;2023-04-29T07:54:11;100437.56;;;20.62;34.72
56630;BME280;42502;40.732;-74.254;2023-04-29T07:56:12;100433.09;;;20.61;34.67
56630;BME280;42502;40.732;-74.254;2023-04-29T07:58:13;100423.06;;;20.60;34.88
56630;BME280;42502;40.732;-74.254;2023-04-29T08:00:14;100418.28;;;20.61;34.72
56630;BME280;42502;40.732;-74.254;2023-04-29T08:02:14;100409.00;;;20.60;34.80
56630;BME280;42502;40.732;-74.254;2023-04-29T08:04:16;100401.69;;;20.55;34.71
56630;BME280;42502;40.732;-74.254;2023-04-29T08:06:16;100401.78;;;20.59;34.72
56630;BME280;42502;40.732;-74.254;2023-04-29T08:08:20;100392.53;;;20.58;34.76
56630;BME280;42502;40.732;-74.254;2023-04-29T08:10:21;100380.50;;;20.58;34.89
56630;BME280;42502;40.732;-74.254;2023-04-29T08:12:21;100377.69;;;20.58;34.47
56630;BME280;42502;40.732;-74.254;2023-04-29T08:14:22;100368.84;;;20.56;34.78
56630;BME280;42502;40.732;-74.254;2023-04-29T08:16:23;100371.28;;;20.57;34.73
56630;BME280;42502;40.732;-74.254;2023-04-29T08:18:25;100376.06;;;20.57;34.77
56630;BME280;42502;40.732;-74.254;2023-04-29T08:20:26;100376.44;;;20.55;34.95
56630;BME280;42502;40.732;-74.254;2023-04-29T08:22:28;100354.25;;;20.50;34.38
56630;BME280;42502;40.732;-74.254;2023-04-29T08:24:29;100368.00;;;20.55;34.72
56630;BME280;42502;40.732;-74.254;2023-04-29T08:26:30;100382.88;;;20.56;34.64
56630;BME280;42502;40.732;-74.254;2023-04-29T08:28:31;100370.00;;;20.55;34.74
56630;BME280;42502;40.732;-74.254;2023-04-29T08:30:32;100379.97;;;20.52;34.88
56630;BME280;42502;40.732;-74.254;2023-04-29T08:32:33;100364.72;;;20.37;34.75
56630;BME280;42502;40.732;-74.254;2023-04-29T08:34:34;100354.44;;;20.41;34.66
56630;BME280;42502;40.732;-74.254;2023-04-29T08:36:35;100373.97;;;20.54;34.71
56630;BME280;42502;40.732;-74.254;2023-04-29T08:38:38;100371.53;;;20.52;34.53
56630;BME280;42502;40.732;-74.254;2023-04-29T08:40:43;100367.13;;;20.51;34.63
56630;BME280;42502;40.732;-74.254;2023-04-29T08:42:47;100367.56;;;20.53;34.71
56630;BME280;42502;40.732;-74.254;2023-04-29T08:44:50;100366.75;;;20.53;34.73
56630;BME280;42502;40.732;-74.254;2023-04-29T08:46:52;100368.66;;;20.49;34.68
56630;BME280;42502;40.732;-74.254;2023-04-29T08:48:54;100374.34;;;20.52;34.72
56630;BME280;42502;40.732;-74.254;2023-04-29T08:50:57;100383.97;;;20.51;34.89
56630;BME280;42502;40.732;-74.254;2023-04-29T08:52:58;100375.53;;;20.51;34.78
56630;BME280;42502;40.732;-74.254;2023-04-29T08:55:00;100369.09;;;20.51;34.80
56630;BME280;42502;40.732;-74.254;2023-04-29T08:57:05;100369.44;;;20.49;34.52
56630;BME280;42502;40.732;-74.254;2023-04-29T08:59:08;100354.06;;;20.43;34.56
56630;BME280;42502;40.732;-74.254;2023-04-29T09:01:10;100350.66;;;20.50;34.53
56630;BME280;42502;40.732;-74.254;2023-04-29T09:03:24;100340.94;;;20.47;34.62
56630;BME280;42502;40.732;-74.254;2023-04-29T09:05:27;100337.78;;;20.49;34.60
56630;BME280;42502;40.732;-74.254;2023-04-29T09:07:29;100319.84;;;20.37;34.71
56630;BME280;42502;40.732;-74.254;2023-04-29T09:09:31;100329.38;;;20.49;34.71
56630;BME280;42502;40.732;-74.254;2023-04-29T09:11:33;100320.16;;;20.48;34.72
56630;BME280;42502;40.732;-74.254;2023-04-29T09:13:35;100318.50;;;20.47;34.56
56630;BME280;42502;40.732;-74.254;2023-04-29T09:15:36;100306.81;;;20.45;34.51
56630;BME280;42502;40.732;-74.254;2023-04-29T09:17:47;100310.44;;;20.46;34.64
56630;BME280;42502;40.732;-74.254;2023-04-29T09:19:48;100313.25;;;20.46;34.63
56630;BME280;42502;40.732;-74.254;2023-04-29T09:21:55;100325.66;;;20.45;34.77
56630;BME280;42502;40.732;-74.254;2023-04-29T09:24:01;100320.03;;;20.45;34.72
56630;BME280;42502;40.732;-74.254;2023-04-29T09:26:02;100322.84;;;20.45;34.66
56630;BME280;42502;40.732;-74.254;2023-04-29T09:28:29;100320.75;;;20.41;34.59
56630;BME280;42502;40.732;-74.254;2023-04-29T09:30:30;100315.22;;;20.45;34.79
56630;BME280;42502;40.732;-74.254;2023-04-29T09:32:31;100308.00;;;20.44;34.62
56630;BME280;42502;40.732;-74.254;2023-04-29T09:34:33;100305.81;;;20.37;34.61
56630;BME280;42502;40.732;-74.254;2023-04-29T09:38:52;100299.47;;;20.40;34.50
56630;BME280;42502;40.732;-74.254;2023-04-29T09:40:54;100294.34;;;20.42;34.87
56630;BME280;42502;40.732;-74.254;2023-04-29T09:42:56;100295.88;;;20.40;34.79
56630;BME280;42502;40.732;-74.254;2023-04-29T09:44:57;100293.50;;;20.42;34.78
56630;BME280;42502;40.732;-74.254;2023-04-29T09:47:00;100293.88;;;20.40;34.74
56630;BME280;42502;40.732;-74.254;2023-04-29T09:49:03;100299.47;;;20.40;34.64
56630;BME280;42502;40.732;-74.254;2023-04-29T09:51:04;100307.09;;;20.40;34.83
56630;BME280;42502;40.732;-74.254;2023-04-29T09:53:06;100303.47;;;20.39;34.83
56630;BME280;42502;40.732;-74.254;2023-04-29T09:55:10;100304.28;;;20.40;34.73
56630;BME280;42502;40.732;-74.254;2023-04-29T09:57:12;100303.72;;;20.34;34.55
56630;BME280;42502;40.732;-74.254;2023-04-29T09:59:15;100309.47;;;20.38;34.75
56630;BME280;42502;40.732;-74.254;2023-04-29T10:01:17;100315.06;;;20.38;34.80
56630;BME280;42502;40.732;-74.254;2023-04-29T10:03:21;100316.66;;;20.39;34.65
56630;BME280;42502;40.732;-74.254;2023-04-29T10:05:24;100313.06;;;20.38;34.65
56630;BME280;42502;40.732;-74.254;2023-04-29T10:07:27;100311.44;;;20.37;34.84
56630;BME280;42502;40.732;-74.254;2023-04-29T10:09:29;100311.44;;;20.37;34.60
56630;BME280;42502;40.732;-74.254;2023-04-29T10:11:30;100319.03;;;20.37;34.52
56630;BME280;42502;40.732;-74.254;2023-04-29T10:13:34;100312.63;;;20.36;34.60
56630;BME280;42502;40.732;-74.254;2023-04-29T10:15:45;100312.50;;;20.33;34.81
56630;BME280;42502;40.732;-74.254;2023-04-29T10:17:58;100313.78;;;20.35;34.53
56630;BME280;42502;40.732;-74.254;2023-04-29T10:20:03;100307.81;;;20.37;34.72
56630;BME280;42502;40.732;-74.254;2023-04-29T10:22:08;100305.38;;;20.35;34.76
56630;BME280;42502;40.732;-74.254;2023-04-29T10:24:12;100298.84;;;20.31;34.73
56630;BME280;42502;40.732;-74.254;2023-04-29T10:26:15;100315.69;;;20.31;34.78
56630;BME280;42502;40.732;-74.254;2023-04-29T10:28:19;100341.03;;;20.35;34.67
56630;BME280;42502;40.732;-74.254;2023-04-29T10:30:21;100332.97;;;20.33;34.75
56630;BME280;42502;40.732;-74.254;2023-04-29T10:32:22;100324.56;;;20.33;34.63